Immagine casuale
Testata Regione Lazio ARSIAL SIARL

Ultima Misura Rilevata

Temperatura, Umidità, Pioggia, Pressione Radiazione Solare, Venti, Evapotraspirazione, ecc.
Temperature diurne e notturne Direzione vento Legenda
Prov Stazione Data TMin TMed TMax UMed Pioggia PMed
FR ALATRI Basciano 22/04/2024 6,1 10,8 17 71 0 1.008
FR ALVITO Az. Ist. S. Benedetto 22/04/2024 2,8 9,3 16,8 81 0,2 1.010
FR ANAGNI La Gloria 22/04/2024 4,6 10,6 16,2 77 0,2 1.010
FR ARPINO Vigne Piane 22/04/2024 6,3 10,6 20,3 77 0 1.013
FR BOVILLE ERNICA Sasso 22/04/2024 6,3 11,6 20 76 0 1.011
FR CECCANO C.da Passo del Cardinale 22/04/2024 1 10,6 19,9 78 0 ----
FR ESPERIA Modale 22/04/2024 3,5 10,6 19,4 75 0,2 1.007
FR PASTENA Acero 22/04/2024 -0,7 8 17,1 79 0 1.011
FR PIGLIO Civitella 22/04/2024 3,8 10,3 16,1 78 0 1.008
FR PONTECORVO Melfi di Sotto 22/04/2024 3,1 11,3 20,9 75 0,2 ----
FR S. ELIA FIUMERAPIDO Portella 22/04/2024 5,9 11,4 18,9 79 0 1.009
FR S. GIORGIO A LIRI Porto 22/04/2024 3,5 11,4 20,9 81 0 1.009
FR SGURGOLA Campo Lungo 22/04/2024 1 10,4 17,8 77 0,2 ----
FR VALLECORSA Serbatoio comunale 22/04/2024 6,7 10,2 15,1 78 0 1.009
LT APRILIA Le Ferriere 22/04/2024 6,1 12,7 18,8 77 0 1.010
LT CISTERNA B.go Carso 22/04/2024 4,5 11,8 16,9 78 2,2 ----
LT CISTERNA Doganella di Ninfa 22/04/2024 5,1 13,2 18,2 72 3 1.010
LT CORI Portone 22/04/2024 8,6 13,6 18,1 70 0,2 1.009
LT FONDI Capratica 22/04/2024 4,8 12,4 20,4 79 0 1.010
LT FORMIA Loc. Gianola 22/04/2024 4,8 12,4 20 80 0 ----
LT ITRI Valle Quercia 22/04/2024 8,8 13,2 19,1 71 0 1.010
LT MAENZA Casacotta 22/04/2024 5,8 12 19,4 77 0,2 1.009
LT MINTURNO Pulcherini 22/04/2024 10 14 19,3 72 0 1.010
LT PONTINIA Cotarda 22/04/2024 7,1 13,1 19,8 77 0,8 1.008
LT SABAUDIA Acquaviva 22/04/2024 7,4 13 20 69 2,4 1.009
LT SONNINO Frasso 22/04/2024 10,9 14,8 20 67 0 1.012
RI ACCUMOLI Terracino 22/04/2024 1,6 5,1 8,8 81 0,6 1.011
RI BORGOVELINO Ponte Basso 22/04/2024 2,9 9,5 16,6 78 3,6 1.011
RI CANTALUPO S. Francesco 22/04/2024 5,1 10,9 16,2 76 1,6 ----
RI CASTEL DI TORA Monte di Tora 22/04/2024 2,8 9,4 17,4 77 1,8 1.007
RI CASTELNUOVO FARFA C. Spadone 22/04/2024 7 11,9 16,3 77 1,2 ----
RI CONFIGNI Portella 22/04/2024 6,6 10,1 15,1 77 1,8 1.010
RI FARA SABINA Canneto 22/04/2024 8,7 11,9 16,8 70 1,6 1.010
RI FARA SABINA Sant'Andrea 22/04/2024 7,9 12,4 16,8 77 1,4 ----
RI MONTELEONE S. Prato Camino 22/04/2024 5,8 10,4 16,6 77 5,2 1.010
RI MONTOPOLI IN SABINA Colle Arcone 22/04/2024 8,6 12 16,1 75 0,8 ----
RI MONTOPOLI IN SABINA Villa Caprola 22/04/2024 7,2 12 18,4 76 1 ----
RI POGGIO CATINO Pastine 22/04/2024 8,9 11,8 15,4 70 1 ----
RI POGGIO NATIVO Casali 22/04/2024 7,8 10,7 14,4 78 2,8 ----
RI RIETI Piana di Rieti 22/04/2024 4 9,9 15,2 79 3,5 1.012
RI SCANDRIGLIA Ponticelli 22/04/2024 6,7 11,4 16,3 72 4,9 ----
RM AGOSTA La Cisterna 22/04/2024 4,2 9,5 14,7 79 0 1.011
RM BRACCIANO Prato Pianciano 22/04/2024 N.D. N.D. N.D. N.D. N.D. N.D.
RM CANALE MONTERANO Monte Virginio 22/04/2024 4 9,8 15 80 4,2 1.011
RM CERVETERI Campo di Mare 22/04/2024 8,7 13,2 16,5 72 2,4 ----
RM CIVITELLA S.PAOLO Le Cese 22/04/2024 6,5 10,9 16,8 79 2,4 1.009
RM FIUMICINO Maccarese 22/04/2024 7,3 13,1 18,3 78 1,6 1.009
RM FIUMICINO Testa di Lepre 22/04/2024 8,6 12,3 17,6 76 0,8 ----
RM FORMELLO Perazzeta 22/04/2024 7,8 11,6 17,2 83 1,2 ----
RM FRASCATI Prata Porci 22/04/2024 5,9 12,6 19,2 70 0,4 1.009
RM GENAZZANO Coop. La Sonnina 22/04/2024 5,5 10,7 15,1 79 0,6 1.012
RM GROTTAFERRATA Valle Marciana 22/04/2024 7,8 13 17,6 69 0,2 1.009
RM LADISPOLI Palo Laziale 22/04/2024 9 13,7 17 69 0,5 1.011
RM LICENZA Colle Franco 22/04/2024 3 9,7 17,9 81 1,2 1.009
RM MARCELLINA V. Campetella 22/04/2024 7,4 12,6 18,5 72 0,6 ----
RM MARINO Gotto d'Oro 22/04/2024 10 13,3 17,9 66 0,4 1.011
RM MONTECOMPATRI Colle Mattia 22/04/2024 4,9 12,1 18,7 70 0,2 1.011
RM MONTECOMPATRI Pantano Borghese 22/04/2024 4,5 12,8 20,1 72 0,2 1.008
RM MONTELIBRETTI Bruciati 22/04/2024 4,6 11,7 18,1 79 2 ----
RM MONTEPORZIO Camaldoli 22/04/2024 5,4 9,1 14,6 80 2 1.011
RM MONTEROTONDO Grotta Marozza 22/04/2024 8,5 12,7 18,1 74 1,6 1.018
RM PALOMBARA Fonte Grande 22/04/2024 4,8 11,7 17,8 82 1 ----
RM ROMA Capocotta 22/04/2024 10,5 13,5 17,8 77 0 ----
RM ROMA Ponte di Nona 22/04/2024 9,4 13,4 18,6 75 0,4 1.011
RM ROMA Via Lanciani 38 22/04/2024 11,1 14,2 18 76 0,7 1.009
RM S. GREGORIO C. Faustiniano 22/04/2024 7,7 11,9 17,1 71 0,6 1.006
RM VELLETRI Cantina Sperimentale 22/04/2024 5,2 11 16,6 77 0 1.010
RM VELLETRI Prato Lungo 22/04/2024 6,3 12,4 17 69 0 ----
RM ZAGAROLO Santa Apollara 22/04/2024 7,8 11,8 15,8 77 1,8 ----
VT ACQUAPENDENTE Falconiera 22/04/2024 4,6 8,7 13,5 82 3,6 1.008
VT BAGNOREGIO Castell Cellesi 22/04/2024 6,6 9,2 12,8 72 2,2 ----
VT BASSANO R. Piano Mola 22/04/2024 4,4 9 14,1 86 1,4 1.010
VT BLERA Puntoni 22/04/2024 6,7 10,8 14,5 80 2,6 1.009
VT BOLSENA Capone 22/04/2024 7,5 11 16,5 72 2,6 1.010
VT BOLSENA Rentica 22/04/2024 5,8 10,3 13,5 78 3,4 ----
VT CANINO Diga Timone 22/04/2024 6,2 10,2 14,8 79 3,6 1.010
VT CANINO Pianacce 22/04/2024 7,7 11,4 16 79 1 1.009
VT CANINO San Valeriano 22/04/2024 7,1 10,4 14,9 81 2 ----
VT CELLENO Acquaforte 22/04/2024 4,4 8,8 13,2 92 2 ----
VT CORCHIANO Pantalone 22/04/2024 4,9 11,6 18,9 74 0 1.010
VT FARNESE Gressa 22/04/2024 6,9 9,7 13,7 80 1,5 ----
VT FARNESE Pian di Sala 22/04/2024 3,2 8,5 13,8 88 3,5 ----
VT GROTTE DI CASTRO Borghetto 22/04/2024 4 9,5 14,2 81 3,6 1.010
VT GROTTE DI CASTRO Purgatorio 22/04/2024 5 9,3 16,1 81 1,8 1.008
VT LATERA Centro Florovivaistico 22/04/2024 2,8 8,9 15,1 79 3,4 1.009
VT MONTALTO Le Murelle 22/04/2024 7,6 13,6 16,8 72 0,2 1.010
VT MONTALTO Pescia Romana 22/04/2024 7,6 12,9 17,9 77 0,6 1.008
VT MONTEFIASCONE Commenda 22/04/2024 6,7 10,2 14,8 83 3,7 ----
VT RONCIGLIONE Ponterotto 22/04/2024 4,4 10,6 15,4 78 0,2 ----
VT SORIANO CIMINO Pantane 22/04/2024 5,7 10,8 16,6 73 0,2 1.010
VT SORIANO CIMINO Poggio di Chia 22/04/2024 4,3 10,3 15 78 0,8 ----
VT TARQUINIA Poggio Nebbia 22/04/2024 9,8 13 16 70 3,4 ----
VT TARQUINIA Portaccia 22/04/2024 8 13,3 16,9 73 0 ----
VT TUSCANIA Montebello 22/04/2024 9 11,3 14,5 64 1,6 ----
VT VETRALLA Marchionato 22/04/2024 7,8 11 14,7 83 1,4 ----
VT VITERBO Pisello 22/04/2024 5,8 9,2 13 84 1,2 ----
N.D. = Dati Non Disponibili
---- = Sensore non presente

Le misure esposte sono grezze, ovvero non sono state validate.